LGL1389 EDDB-EDDM
Flight info
| Callsign | LGL1389 |
|---|---|
| Flight time | 0h 52m |
| Altitude | 28000 |
| Route | LUROS4N LUROS Y211 BEBKU Z36 MAREM DCT VESUB T106 TUSTO T108 LANDU LANDU2B |
| Aircraft | B38M/M-SDE1FGHILORVWXY/HB1 |
Departure
| Time | 2026-05-04 08:25 |
|---|---|
| Airport | Berlin Brandenburg Airport (EDDB) |
Arrival
| Time | 2026-05-04 09:17 |
|---|---|
| Airport | Munich Airport (EDDM) |
| Time | Latitude | Longitude | Altitude | Speed | Heading |
|---|---|---|---|---|---|
| 2026-05-04 07:42 | 52.36210 | 13.50698 | 157 ft | 0 kts | 69° |
| 2026-05-04 08:13 | 52.36203 | 13.50670 | 156 ft | 4 kts | 69° |
| 2026-05-04 08:14 | 52.36195 | 13.50633 | 156 ft | 4 kts | 76° |
| 2026-05-04 08:14 | 52.36192 | 13.50595 | 156 ft | 4 kts | 94° |
| 2026-05-04 08:14 | 52.36198 | 13.50560 | 155 ft | 4 kts | 133° |
| 2026-05-04 08:16 | 52.36208 | 13.50549 | 155 ft | 1 kts | 159° |
| 2026-05-04 08:19 | 52.36018 | 13.50669 | 155 ft | 12 kts | 159° |
| 2026-05-04 08:19 | 52.35934 | 13.50723 | 155 ft | 14 kts | 159° |
| 2026-05-04 08:20 | 52.35858 | 13.50770 | 155 ft | 8 kts | 159° |
| 2026-05-04 08:20 | 52.35833 | 13.50815 | 155 ft | 5 kts | 104° |
| 2026-05-04 08:20 | 52.35838 | 13.50897 | 154 ft | 10 kts | 72° |
| 2026-05-04 08:20 | 52.35867 | 13.51021 | 154 ft | 13 kts | 68° |
| 2026-05-04 08:21 | 52.35903 | 13.51170 | 154 ft | 15 kts | 68° |
| 2026-05-04 08:21 | 52.35943 | 13.51339 | 154 ft | 17 kts | 69° |
| 2026-05-04 08:21 | 52.35990 | 13.51528 | 154 ft | 19 kts | 68° |
| 2026-05-04 08:21 | 52.36039 | 13.51739 | 154 ft | 21 kts | 70° |
| 2026-05-04 08:22 | 52.36086 | 13.51946 | 154 ft | 16 kts | 66° |
| 2026-05-04 08:22 | 52.36111 | 13.52071 | 154 ft | 8 kts | 94° |
| 2026-05-04 08:24 | 52.35847 | 13.52268 | 161 ft | 2 kts | 189° |
| 2026-05-04 08:24 | 52.35831 | 13.52248 | 161 ft | 5 kts | 229° |
| 2026-05-04 08:24 | 52.35813 | 13.52191 | 161 ft | 7 kts | 246° |
| 2026-05-04 08:24 | 52.35773 | 13.52030 | 162 ft | 38 kts | 248° |
| 2026-05-04 08:25 | 52.35597 | 13.51272 | 161 ft | 103 kts | 249° |
| 2026-05-04 08:25 | 52.35268 | 13.49903 | 159 ft | 154 kts | 249° |
| 2026-05-04 08:25 | 52.34861 | 13.48167 | 492 ft | 168 kts | 248° |
| 2026-05-04 08:25 | 52.34307 | 13.46461 | 1155 ft | 168 kts | 234° |
| 2026-05-04 08:26 | 52.33595 | 13.44996 | 1890 ft | 167 kts | 232° |
| 2026-05-04 08:27 | 52.26904 | 13.31966 | 6577 ft | 228 kts | 231° |
| 2026-05-04 08:28 | 52.25875 | 13.29996 | 7408 ft | 229 kts | 230° |
| 2026-05-04 08:28 | 52.24722 | 13.28187 | 8187 ft | 232 kts | 216° |
| 2026-05-04 08:28 | 52.23216 | 13.27233 | 8975 ft | 238 kts | 188° |
| 2026-05-04 08:28 | 52.21564 | 13.27676 | 9712 ft | 250 kts | 159° |
| 2026-05-04 08:29 | 52.20198 | 13.29477 | 10426 ft | 263 kts | 129° |
| 2026-05-04 08:29 | 52.19517 | 13.32302 | 11101 ft | 275 kts | 103° |
| 2026-05-04 08:29 | 52.19427 | 13.35446 | 11602 ft | 293 kts | 84° |
| 2026-05-04 08:31 | 52.11213 | 13.51587 | 15297 ft | 341 kts | 167° |
| 2026-05-04 08:33 | 51.94842 | 13.60454 | 19835 ft | 367 kts | 165° |
| 2026-05-04 08:33 | 51.92406 | 13.61789 | 20408 ft | 371 kts | 165° |
| 2026-05-04 08:35 | 51.74740 | 13.71417 | 24095 ft | 394 kts | 165° |
| 2026-05-04 08:35 | 51.72127 | 13.72834 | 24563 ft | 398 kts | 165° |
| 2026-05-04 08:35 | 51.69493 | 13.74260 | 25063 ft | 401 kts | 166° |
| 2026-05-04 08:35 | 51.66843 | 13.75692 | 25566 ft | 403 kts | 166° |
| 2026-05-04 08:37 | 51.50627 | 13.84416 | 27996 ft | 411 kts | 166° |
| 2026-05-04 08:37 | 51.47920 | 13.85852 | 28002 ft | 408 kts | 168° |
| 2026-05-04 08:37 | 51.45159 | 13.86493 | 27993 ft | 397 kts | 186° |
| 2026-05-04 08:38 | 51.42438 | 13.85929 | 28016 ft | 395 kts | 192° |
| 2026-05-04 08:38 | 51.37008 | 13.84500 | 28018 ft | 396 kts | 193° |
| 2026-05-04 08:40 | 51.15288 | 13.78299 | 28014 ft | 397 kts | 193° |
| 2026-05-04 08:41 | 51.09847 | 13.76744 | 28018 ft | 398 kts | 193° |
| 2026-05-04 08:41 | 51.04394 | 13.75190 | 28016 ft | 398 kts | 193° |
| 2026-05-04 08:42 | 50.99855 | 13.73899 | 28019 ft | 399 kts | 193° |
| 2026-05-04 08:42 | 50.94394 | 13.72349 | 28022 ft | 399 kts | 193° |
| 2026-05-04 08:43 | 50.88938 | 13.70699 | 28013 ft | 397 kts | 199° |
| 2026-05-04 08:43 | 50.83631 | 13.68231 | 28024 ft | 398 kts | 198° |
| 2026-05-04 08:44 | 50.78298 | 13.65862 | 28018 ft | 399 kts | 198° |
| 2026-05-04 08:46 | 50.57091 | 13.55606 | 28031 ft | 399 kts | 200° |
| 2026-05-04 08:46 | 50.51796 | 13.52976 | 28026 ft | 399 kts | 200° |
| 2026-05-04 08:47 | 50.46526 | 13.50363 | 28029 ft | 400 kts | 200° |
| 2026-05-04 08:47 | 50.41191 | 13.47724 | 28035 ft | 400 kts | 200° |
| 2026-05-04 08:48 | 50.35920 | 13.45124 | 28036 ft | 400 kts | 200° |
| 2026-05-04 08:48 | 50.30615 | 13.42513 | 28037 ft | 399 kts | 200° |
| 2026-05-04 08:49 | 50.25309 | 13.39907 | 28036 ft | 399 kts | 200° |
| 2026-05-04 08:50 | 50.06737 | 13.30835 | 28046 ft | 400 kts | 199° |
| 2026-05-04 08:51 | 50.01430 | 13.28256 | 28044 ft | 400 kts | 199° |
| 2026-05-04 08:51 | 49.96114 | 13.25679 | 28040 ft | 401 kts | 199° |
| 2026-05-04 08:52 | 49.90783 | 13.23100 | 28044 ft | 402 kts | 199° |
| 2026-05-04 08:52 | 49.85435 | 13.20519 | 28048 ft | 402 kts | 199° |
| 2026-05-04 08:54 | 49.64044 | 13.10256 | 28045 ft | 402 kts | 199° |
| 2026-05-04 08:55 | 49.58750 | 13.07730 | 28050 ft | 386 kts | 199° |
| 2026-05-04 08:55 | 49.56187 | 13.06509 | 27259 ft | 392 kts | 199° |
| 2026-05-04 08:55 | 49.53556 | 13.05258 | 26477 ft | 398 kts | 199° |
| 2026-05-04 08:57 | 49.34983 | 12.94543 | 21835 ft | 386 kts | 206° |
| 2026-05-04 09:01 | 49.06581 | 12.74082 | 17355 ft | 311 kts | 205° |
| 2026-05-04 09:01 | 49.04632 | 12.72678 | 17027 ft | 309 kts | 205° |
| 2026-05-04 09:01 | 49.02699 | 12.71287 | 16694 ft | 307 kts | 206° |
| 2026-05-04 09:01 | 49.00800 | 12.69925 | 16380 ft | 304 kts | 205° |
| 2026-05-04 09:02 | 48.98897 | 12.68559 | 16031 ft | 303 kts | 206° |
| 2026-05-04 09:02 | 48.97004 | 12.67192 | 15710 ft | 304 kts | 206° |
| 2026-05-04 09:02 | 48.95109 | 12.65824 | 15371 ft | 301 kts | 205° |
| 2026-05-04 09:02 | 48.93216 | 12.64476 | 15034 ft | 299 kts | 205° |
| 2026-05-04 09:03 | 48.91338 | 12.63137 | 14718 ft | 297 kts | 205° |
| 2026-05-04 09:03 | 48.89472 | 12.61802 | 14363 ft | 296 kts | 206° |
| 2026-05-04 09:03 | 48.87656 | 12.60410 | 14225 ft | 287 kts | 207° |
| 2026-05-04 09:03 | 48.85908 | 12.59069 | 14151 ft | 278 kts | 207° |
| 2026-05-04 09:04 | 48.84156 | 12.57730 | 13756 ft | 288 kts | 207° |
| 2026-05-04 09:04 | 48.82341 | 12.56347 | 13222 ft | 295 kts | 206° |
| 2026-05-04 09:04 | 48.80500 | 12.54946 | 12796 ft | 296 kts | 206° |
| 2026-05-04 09:04 | 48.78661 | 12.53547 | 12470 ft | 294 kts | 206° |
| 2026-05-04 09:05 | 48.76843 | 12.52167 | 12156 ft | 292 kts | 206° |
| 2026-05-04 09:05 | 48.75032 | 12.50793 | 11840 ft | 290 kts | 206° |
| 2026-05-04 09:05 | 48.73235 | 12.49429 | 11520 ft | 288 kts | 206° |
| 2026-05-04 09:05 | 48.71445 | 12.48072 | 11166 ft | 287 kts | 206° |
| 2026-05-04 09:06 | 48.69662 | 12.46722 | 10844 ft | 286 kts | 207° |
| 2026-05-04 09:07 | 48.57645 | 12.37654 | 8920 ft | 268 kts | 207° |
| 2026-05-04 09:08 | 48.55980 | 12.36401 | 8620 ft | 267 kts | 207° |
| 2026-05-04 09:08 | 48.54323 | 12.35154 | 8335 ft | 265 kts | 207° |
| 2026-05-04 09:08 | 48.52674 | 12.33916 | 8008 ft | 265 kts | 207° |
| 2026-05-04 09:08 | 48.51028 | 12.32680 | 7715 ft | 263 kts | 207° |
| 2026-05-04 09:09 | 48.49397 | 12.31456 | 7431 ft | 262 kts | 207° |
| 2026-05-04 09:09 | 48.47819 | 12.30105 | 7132 ft | 259 kts | 219° |
| 2026-05-04 09:09 | 48.46607 | 12.28125 | 6843 ft | 257 kts | 233° |
| 2026-05-04 09:09 | 48.45556 | 12.25954 | 6583 ft | 255 kts | 234° |
| 2026-05-04 09:10 | 48.44530 | 12.23788 | 6330 ft | 253 kts | 234° |
| 2026-05-04 09:10 | 48.43526 | 12.21642 | 6150 ft | 247 kts | 234° |
| 2026-05-04 09:10 | 48.42549 | 12.19534 | 5912 ft | 245 kts | 234° |
| 2026-05-04 09:10 | 48.41577 | 12.17432 | 5652 ft | 244 kts | 234° |
| 2026-05-04 09:11 | 48.40614 | 12.15355 | 5442 ft | 240 kts | 234° |
| 2026-05-04 09:11 | 48.39677 | 12.13345 | 5277 ft | 235 kts | 234° |
| 2026-05-04 09:11 | 48.38938 | 12.11198 | 5115 ft | 229 kts | 254° |
| 2026-05-04 09:11 | 48.38699 | 12.08883 | 4933 ft | 219 kts | 264° |
| 2026-05-04 09:12 | 48.38558 | 12.06628 | 4641 ft | 214 kts | 263° |
| 2026-05-04 09:12 | 48.38396 | 12.04419 | 4344 ft | 210 kts | 263° |
| 2026-05-04 09:14 | 48.37365 | 11.90987 | 2641 ft | 153 kts | 264° |
| 2026-05-04 09:14 | 48.37249 | 11.89390 | 2447 ft | 154 kts | 265° |
| 2026-05-04 09:14 | 48.37134 | 11.87790 | 2281 ft | 153 kts | 264° |
| 2026-05-04 09:14 | 48.37024 | 11.86196 | 2058 ft | 154 kts | 264° |
| 2026-05-04 09:15 | 48.36885 | 11.84596 | 1865 ft | 154 kts | 263° |
| 2026-05-04 09:15 | 48.36761 | 11.83013 | 1675 ft | 153 kts | 265° |
| 2026-05-04 09:15 | 48.36634 | 11.81429 | 1497 ft | 147 kts | 264° |
| 2026-05-04 09:15 | 48.36532 | 11.80099 | 1488 ft | 97 kts | 263° |
| 2026-05-04 09:17 | 48.36039 | 11.78614 | 1488 ft | 12 kts | 85° |
| 2026-05-04 09:18 | 48.36050 | 11.78745 | 1484 ft | 14 kts | 83° |
| 2026-05-04 09:18 | 48.36063 | 11.78898 | 1477 ft | 16 kts | 83° |
| 2026-05-04 09:18 | 48.36076 | 11.79074 | 1488 ft | 18 kts | 84° |
| 2026-05-04 09:18 | 48.36089 | 11.79255 | 1477 ft | 12 kts | 86° |
| 2026-05-04 09:19 | 48.36044 | 11.79324 | 1488 ft | 10 kts | 172° |
| 2026-05-04 09:19 | 48.36024 | 11.79328 | 1484 ft | 0 kts | 173° |
| 2026-05-04 09:20 | 48.36022 | 11.79328 | 1488 ft | 1 kts | 173° |
| 2026-05-04 09:20 | 48.36005 | 11.79331 | 1483 ft | 3 kts | 173° |
| 2026-05-04 09:20 | 48.35970 | 11.79337 | 1483 ft | 7 kts | 173° |
| 2026-05-04 09:20 | 48.35918 | 11.79355 | 1483 ft | 7 kts | 147° |
| 2026-05-04 09:21 | 48.35881 | 11.79421 | 1480 ft | 10 kts | 134° |
| 2026-05-04 09:21 | 48.35809 | 11.79479 | 1483 ft | 14 kts | 142° |
| 2026-05-04 09:21 | 48.35798 | 11.79585 | 1488 ft | 8 kts | 84° |
| 2026-05-04 09:21 | 48.35805 | 11.79693 | 1481 ft | 12 kts | 84° |
| 2026-05-04 09:22 | 48.35816 | 11.79843 | 1481 ft | 16 kts | 84° |
| 2026-05-04 09:22 | 48.35827 | 11.80006 | 1481 ft | 10 kts | 93° |
| 2026-05-04 09:22 | 48.35774 | 11.80064 | 1484 ft | 12 kts | 169° |
| 2026-05-04 09:22 | 48.35711 | 11.80078 | 1478 ft | 6 kts | 172° |
| 2026-05-04 09:23 | 48.35684 | 11.80090 | 1479 ft | 5 kts | 162° |
| 2026-05-04 09:23 | 48.35652 | 11.80096 | 1488 ft | 0 kts | 190° |
| 2026-05-04 09:23 | 48.35647 | 11.80088 | 1488 ft | 2 kts | 223° |
| 2026-05-04 09:23 | 48.35638 | 11.80057 | 1475 ft | 4 kts | 258° |
| 2026-05-04 09:25 | 48.35632 | 11.79974 | 1488 ft | 0 kts | 264° |